createdAt,value
2022-12-25T00:01:18.859Z,81.10
2022-12-25T00:03:53.917Z,81.06
2022-12-25T00:06:28.021Z,81.06
2022-12-25T00:08:59.631Z,81.16
2022-12-25T00:11:31.278Z,81.37
2022-12-25T00:14:02.940Z,81.40
2022-12-25T00:16:34.885Z,81.45
2022-12-25T00:19:06.605Z,81.48
2022-12-25T00:21:38.293Z,81.48
2022-12-25T00:24:11.156Z,81.59
2022-12-25T00:26:42.752Z,81.21
2022-12-25T00:29:16.363Z,81.42
2022-12-25T00:31:46.631Z,81.55
2022-12-25T00:34:18.365Z,81.54
2022-12-25T00:36:52.613Z,81.60
2022-12-25T00:39:24.557Z,81.64
2022-12-25T00:42:13.813Z,81.25
2022-12-25T00:44:45.387Z,81.24
2022-12-25T00:47:17.787Z,81.20
2022-12-25T00:49:49.646Z,81.36
2022-12-25T00:52:21.309Z,81.29
2022-12-25T00:54:52.956Z,81.43
2022-12-25T00:57:24.710Z,81.34
2022-12-25T00:59:56.334Z,81.27
2022-12-25T01:02:28.011Z,81.24
2022-12-25T01:05:00.023Z,81.35
2022-12-25T01:07:31.668Z,81.44
2022-12-25T01:10:21.107Z,81.36
2022-12-25T01:12:53.699Z,81.46
2022-12-25T01:15:25.322Z,81.46
2022-12-25T01:17:56.958Z,81.58
2022-12-25T01:20:28.656Z,81.65
2022-12-25T01:23:00.320Z,81.61
2022-12-25T01:25:32.217Z,81.46
2022-12-25T01:28:03.903Z,81.35
2022-12-25T01:30:36.485Z,81.37
2022-12-25T01:33:08.125Z,81.37
2022-12-25T01:35:42.831Z,81.40
2022-12-25T01:38:14.699Z,81.43
2022-12-25T01:40:46.354Z,81.29
2022-12-25T01:43:25.892Z,81.40
2022-12-25T01:45:57.844Z,81.25
2022-12-25T01:48:33.750Z,81.28
2022-12-25T01:51:08.287Z,81.28
2022-12-25T01:53:40.147Z,81.39
2022-12-25T01:56:12.520Z,81.50
2022-12-25T01:58:44.494Z,81.44
2022-12-25T02:01:16.720Z,81.66
2022-12-25T02:03:48.602Z,81.56
2022-12-25T02:06:20.248Z,81.43
2022-12-25T02:08:55.125Z,81.42
2022-12-25T02:11:44.193Z,81.52
2022-12-25T02:14:19.354Z,81.25
2022-12-25T02:16:58.956Z,81.24
2022-12-25T02:20:03.994Z,81.56
2022-12-25T02:22:47.932Z,81.68
2022-12-25T02:25:30.005Z,81.70
2022-12-25T02:28:14.776Z,81.82
2022-12-25T02:30:53.396Z,81.75
2022-12-25T02:33:47.221Z,81.84
2022-12-25T02:36:23.593Z,81.75
2022-12-25T02:39:19.298Z,81.74
2022-12-25T02:41:54.786Z,81.86
2022-12-25T02:44:47.086Z,81.90
2022-12-25T02:47:32.923Z,81.92
2022-12-25T02:50:28.431Z,82.05
2022-12-25T02:53:20.118Z,81.92
2022-12-25T02:56:11.790Z,82.05
2022-12-25T02:59:04.190Z,81.82
2022-12-25T03:01:56.128Z,81.89
2022-12-25T03:04:49.273Z,81.75
2022-12-25T03:07:28.081Z,81.83
2022-12-25T03:10:24.232Z,81.94
2022-12-25T03:13:00.284Z,82.01
2022-12-25T03:15:50.871Z,81.96
2022-12-25T03:18:25.354Z,81.88
2022-12-25T03:21:15.187Z,81.95
2022-12-25T03:24:09.748Z,81.83
2022-12-25T03:26:56.975Z,81.85
2022-12-25T03:30:07.379Z,81.83
2022-12-25T03:32:44.479Z,81.86
2022-12-25T03:35:26.147Z,81.74
2022-12-25T03:38:31.473Z,81.71
2022-12-25T03:41:41.169Z,81.79
2022-12-25T03:44:39.217Z,81.75
2022-12-25T03:47:33.786Z,81.82
2022-12-25T03:50:31.605Z,81.87
2022-12-25T03:53:24.965Z,81.86
2022-12-25T03:56:15.584Z,81.86
2022-12-25T03:59:22.979Z,81.79
2022-12-25T04:02:13.337Z,81.77
2022-12-25T04:05:02.919Z,81.80
2022-12-25T04:07:52.630Z,81.69
2022-12-25T04:10:44.192Z,81.76
2022-12-25T04:13:33.766Z,81.75
2022-12-25T04:16:23.975Z,81.70
2022-12-25T04:19:13.611Z,81.69
2022-12-25T04:22:04.944Z,81.54
2022-12-25T04:24:54.435Z,81.69
2022-12-25T04:27:43.946Z,81.68
2022-12-25T04:30:33.604Z,81.68
2022-12-25T04:33:23.346Z,81.71
2022-12-25T04:36:12.265Z,81.73
2022-12-25T04:38:44.015Z,81.65
2022-12-25T04:41:16.033Z,81.58
2022-12-25T04:43:47.774Z,81.53
2022-12-25T04:46:23.574Z,81.54
2022-12-25T04:48:55.264Z,81.58
2022-12-25T04:51:28.097Z,81.53
2022-12-25T04:53:59.736Z,81.50
2022-12-25T04:56:31.412Z,81.56
2022-12-25T04:59:04.282Z,81.51
2022-12-25T05:01:36.330Z,81.53
2022-12-25T05:04:10.080Z,81.56
2022-12-25T05:06:49.283Z,81.53
2022-12-25T05:09:22.181Z,81.51
2022-12-25T05:11:53.837Z,81.51
2022-12-25T05:14:25.540Z,81.63
2022-12-25T05:16:57.362Z,81.64
2022-12-25T05:19:29.512Z,81.54
2022-12-25T05:22:01.114Z,81.60
2022-12-25T05:24:37.686Z,81.51
2022-12-25T05:27:09.497Z,81.34
2022-12-25T05:29:41.134Z,81.16
2022-12-25T05:32:12.940Z,81.20
2022-12-25T05:34:45.927Z,81.33
2022-12-25T05:37:17.919Z,81.35
2022-12-25T05:39:54.965Z,81.37
2022-12-25T05:42:29.759Z,81.51
2022-12-25T05:45:03.944Z,81.58
2022-12-25T05:47:35.774Z,81.35
2022-12-25T05:50:10.314Z,81.41
2022-12-25T05:52:45.090Z,81.26
2022-12-25T05:55:17.039Z,81.25
2022-12-25T05:57:48.693Z,81.25
2022-12-25T06:00:23.621Z,81.08
2022-12-25T06:02:56.938Z,81.07
2022-12-25T06:05:32.002Z,81.06
2022-12-25T06:08:03.678Z,81.06
2022-12-25T06:10:37.253Z,81.05
2022-12-25T06:13:08.981Z,81.07
2022-12-25T06:15:44.597Z,81.18
2022-12-25T06:18:18.192Z,81.29
2022-12-25T06:20:48.339Z,81.30
2022-12-25T06:23:20.221Z,81.26
2022-12-25T06:25:56.859Z,81.18
2022-12-25T06:28:29.784Z,81.26
2022-12-25T06:31:08.670Z,81.42
2022-12-25T06:33:43.592Z,81.35
2022-12-25T06:36:17.775Z,81.35
2022-12-25T06:38:50.873Z,81.34
2022-12-25T06:41:27.183Z,81.25
2022-12-25T06:44:03.607Z,81.24
2022-12-25T06:46:36.257Z,81.22
2022-12-25T06:49:12.323Z,81.18
2022-12-25T06:51:44.173Z,81.35
2022-12-25T06:54:16.197Z,81.25
2022-12-25T06:56:48.684Z,81.16
2022-12-25T06:59:25.424Z,81.08
2022-12-25T07:01:58.673Z,81.04
2022-12-25T07:04:35.645Z,81.20
2022-12-25T07:07:09.859Z,81.35
2022-12-25T07:09:45.911Z,81.37
2022-12-25T07:12:21.199Z,81.39
2022-12-25T07:14:55.758Z,81.35
2022-12-25T07:17:27.412Z,81.43
2022-12-25T07:20:00.283Z,81.32
2022-12-25T07:22:33.585Z,81.21
2022-12-25T07:25:05.829Z,81.24
2022-12-25T07:27:37.493Z,81.15
2022-12-25T07:30:11.987Z,81.07
2022-12-25T07:32:49.877Z,81.13
2022-12-25T07:35:21.838Z,81.36
2022-12-25T07:37:53.519Z,81.34
2022-12-25T07:40:25.249Z,81.47
2022-12-25T07:42:56.903Z,81.53
2022-12-25T07:45:28.577Z,81.46
2022-12-25T07:48:05.218Z,81.61
2022-12-25T07:50:38.033Z,81.52
2022-12-25T07:53:09.850Z,81.61
2022-12-25T07:55:41.454Z,81.69
2022-12-25T07:58:16.071Z,81.63
2022-12-25T08:00:51.629Z,81.64
2022-12-25T08:03:23.701Z,81.58
2022-12-25T08:05:55.657Z,81.70
2022-12-25T08:08:27.279Z,81.77
2022-12-25T08:10:59.035Z,81.81
2022-12-25T08:13:33.402Z,81.86
2022-12-25T08:16:07.853Z,81.98
2022-12-25T08:18:40.321Z,81.98
2022-12-25T08:21:15.204Z,82.06
2022-12-25T08:23:48.749Z,82.15
2022-12-25T08:26:21.218Z,82.26
2022-12-25T08:28:53.596Z,82.16
2022-12-25T08:31:27.837Z,82.27
2022-12-25T08:34:00.699Z,82.42
2022-12-25T08:36:32.655Z,82.61
2022-12-25T08:39:04.531Z,82.42
2022-12-25T08:41:36.879Z,81.98
2022-12-25T08:44:08.800Z,81.84
2022-12-25T08:46:40.984Z,82.03
2022-12-25T08:49:12.653Z,81.81
2022-12-25T08:51:46.857Z,81.86
2022-12-25T08:54:18.653Z,81.88
2022-12-25T08:56:51.354Z,81.69
2022-12-25T08:59:23.344Z,81.58
2022-12-25T09:01:55.096Z,81.63
2022-12-25T09:04:27.057Z,81.28
2022-12-25T09:06:58.667Z,80.52
2022-12-25T09:09:31.541Z,80.47
2022-12-25T09:12:03.184Z,80.34
2022-12-25T09:14:34.913Z,80.38
2022-12-25T09:17:06.926Z,80.24
2022-12-25T09:19:38.712Z,80.34
2022-12-25T09:22:10.370Z,80.75
2022-12-25T09:24:43.760Z,80.79
2022-12-25T09:27:15.489Z,80.54
2022-12-25T09:29:47.135Z,80.41
2022-12-25T09:32:18.827Z,80.21
2022-12-25T09:34:51.403Z,80.21
2022-12-25T09:37:23.171Z,80.03
2022-12-25T09:39:54.763Z,79.89
2022-12-25T09:42:31.362Z,79.96
2022-12-25T09:45:06.926Z,79.83
2022-12-25T09:47:41.256Z,79.78
2022-12-25T09:50:18.283Z,80.14
2022-12-25T09:52:56.326Z,79.85
2022-12-25T09:55:31.713Z,79.25
2022-12-25T09:58:09.845Z,79.38
2022-12-25T10:00:45.254Z,79.46
2022-12-25T10:03:36.907Z,79.60
2022-12-25T10:06:18.047Z,79.69
2022-12-25T10:09:04.571Z,79.73
2022-12-25T10:11:52.595Z,79.71
2022-12-25T10:14:32.824Z,79.78
2022-12-25T10:17:18.722Z,79.67
2022-12-25T10:19:58.010Z,79.68
2022-12-25T10:22:35.795Z,79.48
2022-12-25T10:25:16.031Z,79.58
2022-12-25T10:27:51.092Z,79.67
2022-12-25T10:30:25.463Z,79.72
2022-12-25T10:32:59.043Z,79.55
2022-12-25T10:35:32.817Z,79.70
2022-12-25T10:38:08.011Z,79.44
2022-12-25T10:40:53.033Z,79.45
2022-12-25T10:43:31.674Z,79.32
2022-12-25T10:46:09.371Z,79.51
2022-12-25T10:48:43.835Z,79.74
2022-12-25T10:51:16.013Z,79.64
2022-12-25T10:53:47.720Z,79.98
2022-12-25T10:56:22.855Z,79.71
2022-12-25T10:59:04.696Z,78.97
2022-12-25T11:01:36.771Z,78.55
2022-12-25T11:04:16.462Z,78.40
2022-12-25T11:06:59.664Z,78.31
2022-12-25T11:09:31.497Z,77.97
2022-12-25T11:12:03.685Z,77.59
2022-12-25T11:14:35.311Z,77.25
2022-12-25T11:17:19.523Z,77.42
2022-12-25T11:19:56.967Z,77.63
2022-12-25T11:22:29.553Z,77.07
2022-12-25T11:25:14.575Z,76.83
2022-12-25T11:27:51.861Z,76.79
2022-12-25T11:30:25.449Z,76.86
2022-12-25T11:32:59.902Z,77.10
2022-12-25T11:35:38.407Z,77.21
2022-12-25T11:38:11.992Z,77.14
2022-12-25T11:40:48.732Z,77.05
2022-12-25T11:43:24.831Z,77.16
2022-12-25T11:46:00.687Z,77.01
2022-12-25T11:48:38.013Z,76.93
2022-12-25T11:51:12.736Z,76.89
2022-12-25T11:53:49.543Z,76.63
2022-12-25T11:56:22.930Z,76.65
2022-12-25T11:58:58.021Z,76.61
2022-12-25T12:01:36.559Z,76.70
2022-12-25T12:04:15.040Z,76.81
2022-12-25T12:06:53.033Z,76.57
2022-12-25T12:09:38.027Z,76.55
2022-12-25T12:12:15.724Z,76.54
2022-12-25T12:14:54.737Z,76.40
2022-12-25T12:17:26.544Z,76.39
2022-12-25T12:19:58.921Z,76.46
2022-12-25T12:22:31.152Z,76.33
2022-12-25T12:25:06.800Z,76.21
2022-12-25T12:27:40.816Z,76.12
2022-12-25T12:30:27.906Z,75.91
2022-12-25T12:33:02.113Z,75.80
2022-12-25T12:35:36.218Z,75.71
2022-12-25T12:38:12.895Z,75.78
2022-12-25T12:40:52.547Z,75.84
2022-12-25T12:43:33.238Z,75.91
2022-12-25T12:46:09.379Z,75.65
2022-12-25T12:48:44.583Z,75.53
2022-12-25T12:51:29.268Z,75.50
2022-12-25T12:54:21.308Z,75.57
2022-12-25T12:57:01.185Z,75.52
2022-12-25T12:59:43.547Z,75.37
2022-12-25T13:02:49.562Z,75.58
2022-12-25T13:05:34.407Z,75.42
2022-12-25T13:08:21.345Z,75.41
2022-12-25T13:11:04.078Z,75.43
2022-12-25T13:13:41.049Z,75.27
2022-12-25T13:16:23.768Z,75.24
2022-12-25T13:18:57.367Z,75.13
2022-12-25T13:21:30.403Z,75.15
2022-12-25T13:24:04.315Z,75.20
2022-12-25T13:26:36.725Z,75.23
2022-12-25T13:29:19.740Z,75.22
2022-12-25T13:31:51.390Z,75.22
2022-12-25T13:34:29.556Z,75.20
2022-12-25T13:37:06.990Z,75.26
2022-12-25T13:39:40.577Z,75.17
2022-12-25T13:42:16.591Z,75.03
2022-12-25T13:44:50.697Z,75.06
2022-12-25T13:47:32.919Z,75.11
2022-12-25T13:50:17.791Z,75.00
2022-12-25T13:52:50.068Z,74.97
2022-12-25T13:55:24.503Z,75.07
2022-12-25T13:57:59.087Z,74.99
2022-12-25T14:00:39.682Z,74.89
2022-12-25T14:03:19.645Z,74.89
2022-12-25T14:05:58.776Z,74.80
2022-12-25T14:08:32.590Z,74.99
2022-12-25T14:11:07.185Z,75.04
2022-12-25T14:13:42.480Z,74.90
2022-12-25T14:16:16.766Z,74.96
2022-12-25T14:18:55.945Z,75.00
2022-12-25T14:21:32.507Z,75.18
2022-12-25T14:24:04.440Z,75.18
2022-12-25T14:26:36.421Z,75.11
2022-12-25T14:29:17.848Z,75.12
2022-12-25T14:31:51.106Z,75.20
2022-12-25T14:34:25.569Z,75.26
2022-12-25T14:36:57.845Z,75.27
2022-12-25T14:39:37.249Z,75.36
2022-12-25T14:42:20.388Z,75.51
2022-12-25T14:45:05.194Z,75.47
2022-12-25T14:47:51.616Z,75.56
2022-12-25T14:50:31.741Z,75.56
2022-12-25T14:53:03.734Z,75.49
2022-12-25T14:55:35.679Z,75.57
2022-12-25T14:58:22.797Z,75.57
2022-12-25T15:00:58.613Z,75.63
2022-12-25T15:03:33.481Z,75.72
2022-12-25T15:06:07.402Z,75.71
2022-12-25T15:08:39.166Z,75.70
2022-12-25T15:11:11.361Z,75.73
2022-12-25T15:13:43.148Z,75.60
2022-12-25T15:16:19.548Z,75.56
2022-12-25T15:18:52.901Z,75.62
2022-12-25T15:21:28.306Z,75.61
2022-12-25T15:24:01.132Z,75.75
2022-12-25T15:26:33.872Z,75.73
2022-12-25T15:29:06.189Z,75.59
2022-12-25T15:31:40.336Z,75.59
2022-12-25T15:34:23.596Z,75.80
2022-12-25T15:36:55.984Z,75.92
2022-12-25T15:39:27.647Z,76.12
2022-12-25T15:42:12.759Z,76.08
2022-12-25T15:44:45.410Z,75.81
2022-12-25T15:47:20.002Z,75.85
2022-12-25T15:49:51.798Z,75.76
2022-12-25T15:52:23.461Z,75.88
2022-12-25T15:54:55.068Z,76.13
2022-12-25T15:57:27.025Z,76.05
2022-12-25T15:59:58.821Z,76.22
2022-12-25T16:02:30.665Z,76.38
2022-12-25T16:05:09.947Z,76.07
2022-12-25T16:07:42.409Z,75.96
2022-12-25T16:10:19.215Z,76.03
2022-12-25T16:12:51.120Z,76.05
2022-12-25T16:15:22.756Z,76.23
2022-12-25T16:17:54.424Z,76.48
2022-12-25T16:20:26.075Z,76.62
2022-12-25T16:22:57.873Z,76.72
2022-12-25T16:25:29.550Z,76.47
2022-12-25T16:28:03.563Z,76.43
2022-12-25T16:30:35.502Z,76.52
2022-12-25T16:33:08.189Z,76.51
2022-12-25T16:35:39.790Z,76.61
2022-12-25T16:38:11.974Z,76.59
2022-12-25T16:40:44.415Z,76.42
2022-12-25T16:43:21.940Z,76.49
2022-12-25T16:45:57.387Z,76.59
2022-12-25T16:48:27.843Z,76.70
2022-12-25T16:50:59.577Z,76.84
2022-12-25T16:53:32.618Z,77.03
2022-12-25T16:56:09.879Z,76.95
2022-12-25T16:58:42.780Z,76.94
2022-12-25T17:01:16.113Z,77.03
2022-12-25T17:03:48.475Z,77.14
2022-12-25T17:06:22.965Z,77.06
2022-12-25T17:08:58.312Z,77.05
2022-12-25T17:11:30.957Z,76.98
2022-12-25T17:14:05.314Z,77.04
2022-12-25T17:16:38.999Z,77.05
2022-12-25T17:19:18.590Z,77.13
2022-12-25T17:21:50.263Z,77.02
2022-12-25T17:24:22.386Z,77.04
2022-12-25T17:26:53.975Z,77.05
2022-12-25T17:29:26.091Z,76.94
2022-12-25T17:31:57.703Z,76.95
2022-12-25T17:34:29.335Z,76.84
2022-12-25T17:37:00.971Z,76.90
2022-12-25T17:39:33.041Z,77.02
2022-12-25T17:42:05.106Z,76.92
2022-12-25T17:44:36.728Z,77.11
2022-12-25T17:47:08.725Z,77.46
2022-12-25T17:49:40.521Z,77.38
2022-12-25T17:52:12.145Z,77.43
2022-12-25T17:54:44.043Z,77.33
2022-12-25T17:57:15.650Z,77.39
2022-12-25T17:59:47.282Z,77.49
2022-12-25T18:02:19.039Z,77.53
2022-12-25T18:04:51.266Z,77.56
2022-12-25T18:07:23.112Z,77.62
2022-12-25T18:09:54.914Z,77.51
2022-12-25T18:12:27.639Z,77.54
2022-12-25T18:15:00.015Z,77.26
2022-12-25T18:17:32.435Z,77.39
2022-12-25T18:20:04.315Z,77.24
2022-12-25T18:22:37.610Z,77.29
2022-12-25T18:25:10.891Z,77.37
2022-12-25T18:27:42.580Z,77.45
2022-12-25T18:30:14.952Z,77.53
2022-12-25T18:32:46.763Z,77.71
2022-12-25T18:35:18.503Z,77.81
2022-12-25T18:37:50.151Z,77.88
2022-12-25T18:40:21.914Z,77.82
2022-12-25T18:42:57.801Z,77.82
2022-12-25T18:45:34.512Z,77.82
2022-12-25T18:48:07.539Z,77.92
2022-12-25T18:50:41.244Z,77.87
2022-12-25T18:53:12.886Z,77.89
2022-12-25T18:55:44.523Z,77.71
2022-12-25T18:58:16.280Z,77.79
2022-12-25T19:00:47.991Z,77.94
2022-12-25T19:03:22.829Z,78.08
2022-12-25T19:05:54.862Z,78.11
2022-12-25T19:08:27.253Z,78.07
2022-12-25T19:10:59.038Z,78.15
2022-12-25T19:13:31.124Z,78.10
2022-12-25T19:16:04.193Z,78.07
2022-12-25T19:18:36.561Z,78.10
2022-12-25T19:21:10.443Z,78.18
2022-12-25T19:23:42.771Z,78.14
2022-12-25T19:26:16.142Z,78.21
2022-12-25T19:28:49.670Z,78.20
2022-12-25T19:31:22.168Z,78.21
2022-12-25T19:33:54.539Z,78.13
2022-12-25T19:36:26.462Z,78.09
2022-12-25T19:38:59.089Z,78.15
2022-12-25T19:41:30.905Z,78.08
2022-12-25T19:44:03.107Z,78.20
2022-12-25T19:46:36.795Z,78.07
2022-12-25T19:49:07.944Z,78.17
2022-12-25T19:51:42.411Z,78.26
2022-12-25T19:54:17.261Z,78.22
2022-12-25T19:56:49.482Z,77.97
2022-12-25T19:59:21.137Z,78.00
2022-12-25T20:01:52.956Z,78.09
2022-12-25T20:04:24.779Z,78.10
2022-12-25T20:06:56.477Z,78.31
2022-12-25T20:09:28.157Z,78.23
2022-12-25T20:11:59.903Z,78.27
2022-12-25T20:14:31.533Z,78.19
2022-12-25T20:17:03.250Z,78.16
2022-12-25T20:19:35.065Z,78.13
2022-12-25T20:22:06.753Z,78.08
2022-12-25T20:24:38.517Z,78.11
2022-12-25T20:27:10.214Z,78.25
2022-12-25T20:29:41.823Z,78.27
2022-12-25T20:32:13.618Z,78.53
2022-12-25T20:34:45.658Z,78.55
2022-12-25T20:37:17.319Z,78.44
2022-12-25T20:39:48.903Z,78.42
2022-12-25T20:42:20.602Z,78.52
2022-12-25T20:44:52.366Z,78.58
2022-12-25T20:47:24.255Z,78.61
2022-12-25T20:49:56.396Z,78.67
2022-12-25T20:52:28.507Z,78.58
2022-12-25T20:55:00.066Z,78.72
2022-12-25T20:57:31.877Z,78.63
2022-12-25T21:00:05.051Z,78.60
2022-12-25T21:02:37.898Z,78.66
2022-12-25T21:05:12.438Z,78.52
2022-12-25T21:07:44.077Z,78.51
2022-12-25T21:10:15.715Z,78.67
2022-12-25T21:12:47.348Z,78.72
2022-12-25T21:15:19.354Z,78.73
2022-12-25T21:17:50.967Z,78.41
2022-12-25T21:20:22.593Z,78.10
2022-12-25T21:22:54.227Z,78.21
2022-12-25T21:25:25.815Z,78.33
2022-12-25T21:27:57.437Z,78.37
2022-12-25T21:30:29.151Z,78.40
2022-12-25T21:33:18.509Z,78.50
2022-12-25T21:35:50.171Z,78.44
2022-12-25T21:38:22.148Z,78.41
2022-12-25T21:40:53.819Z,78.41
2022-12-25T21:43:25.535Z,78.33
2022-12-25T21:45:57.203Z,78.47
2022-12-25T21:48:28.910Z,78.54
2022-12-25T21:51:23.662Z,78.32
2022-12-25T21:53:55.267Z,78.54
2022-12-25T21:56:28.487Z,78.60
2022-12-25T21:59:01.291Z,78.62
2022-12-25T22:01:33.637Z,78.48
2022-12-25T22:04:06.988Z,78.48
2022-12-25T22:06:56.219Z,78.61
2022-12-25T22:09:27.783Z,78.63
2022-12-25T22:12:17.204Z,78.72
2022-12-25T22:14:57.047Z,78.79
2022-12-25T22:17:48.722Z,78.84
2022-12-25T22:20:22.396Z,78.63
2022-12-25T22:22:54.764Z,78.74
2022-12-25T22:25:27.303Z,78.82
2022-12-25T22:27:59.258Z,78.71
2022-12-25T22:30:32.310Z,78.67
2022-12-25T22:33:04.147Z,78.91
2022-12-25T22:35:35.729Z,78.84
2022-12-25T22:38:07.354Z,78.90
2022-12-25T22:40:38.962Z,79.08
2022-12-25T22:43:10.609Z,78.98
2022-12-25T22:45:42.245Z,78.96
2022-12-25T22:48:13.868Z,79.03
2022-12-25T22:50:45.504Z,78.98
2022-12-25T22:53:17.312Z,79.13
2022-12-25T22:55:49.951Z,79.13
2022-12-25T22:58:21.579Z,78.96
2022-12-25T23:00:53.270Z,79.03
2022-12-25T23:03:25.049Z,78.95
2022-12-25T23:05:57.794Z,79.02
2022-12-25T23:08:29.436Z,79.03
2022-12-25T23:11:05.508Z,78.96
2022-12-25T23:13:55.682Z,78.99
2022-12-25T23:16:27.849Z,79.13
2022-12-25T23:19:17.634Z,79.01
2022-12-25T23:22:07.120Z,78.90
2022-12-25T23:24:56.620Z,78.84
2022-12-25T23:27:28.272Z,78.98
2022-12-25T23:29:59.883Z,78.91
2022-12-25T23:32:32.180Z,78.86
2022-12-25T23:35:04.206Z,78.87
2022-12-25T23:37:36.001Z,78.92
2022-12-25T23:40:10.328Z,78.94
2022-12-25T23:42:43.170Z,78.88
2022-12-25T23:45:15.026Z,79.00
2022-12-25T23:47:46.812Z,78.97
2022-12-25T23:50:18.488Z,79.03
2022-12-25T23:52:50.093Z,79.05
2022-12-25T23:55:21.688Z,79.17
2022-12-25T23:57:53.262Z,79.18
